Time;durP1;ratioP1;P1;durP2;ratioP2;P2;SDS_P1;SDS_P2;PMS_P1;PMS_P2;Temp;Humidity;BMP_temperature;BMP_pressure;BME280_temperature;BME280_humidity;BME280_pressure;Samples;Min_cycle;Max_cycle;Signal;HPM_P1;HPM_P2
2023/08/12 00:02:08;;;;;;;3.22;2.45;;;15.10;99.90;;;;;;5206071;28;20056;-67
2023/08/12 00:04:42;;;;;;;3.15;2.78;;;15.10;99.90;;;;;;5222364;28;20047;-66
2023/08/12 00:07:16;;;;;;;3.38;3.03;;;14.90;99.90;;;;;;5207262;28;20572;-68
2023/08/12 00:09:56;;;;;;;3.17;2.80;;;14.90;99.90;;;;;;5189740;28;20071;-66
2023/08/12 00:12:33;;;;;;;3.17;2.40;;;14.90;99.90;;;;;;5238167;28;20074;-69
2023/08/12 00:15:08;;;;;;;3.58;2.42;;;14.80;99.90;;;;;;5221468;28;20062;-68
2023/08/12 00:17:41;;;;;;;2.85;2.42;;;14.80;99.90;;;;;;5198657;28;20036;-65
2023/08/12 00:20:18;;;;;;;3.50;2.78;;;14.80;99.90;;;;;;5202119;28;20402;-66
2023/08/12 00:22:50;;;;;;;4.65;2.83;;;14.90;99.90;;;;;;5196123;28;20040;-67
2023/08/12 00:25:21;;;;;;;3.08;2.55;;;14.90;99.90;;;;;;5233208;28;20046;-66
2023/08/12 00:27:56;;;;;;;3.60;2.75;;;14.90;99.90;;;;;;5190816;28;20041;-67
2023/08/12 00:30:30;;;;;;;3.03;2.55;;;14.80;99.90;;;;;;5201196;28;20029;-67
2023/08/12 00:33:04;;;;;;;3.17;2.88;;;14.80;99.90;;;;;;5199362;28;20036;-67
2023/08/12 00:35:36;;;;;;;;;;;14.80;99.90;;;;;;5213913;28;20068;-66
2023/08/12 00:38:17;;;;;;;4.60;3.13;;;14.80;99.90;;;;;;5235828;28;19927;-69
2023/08/12 00:40:49;;;;;;;3.20;2.40;;;14.70;99.90;;;;;;5207107;28;20046;-67
2023/08/12 00:43:23;;;;;;;2.45;2.25;;;14.70;99.90;;;;;;5188566;28;20051;-70
2023/08/12 00:46:00;;;;;;;3.55;2.40;;;14.70;99.90;;;;;;5184547;28;20567;-67
2023/08/12 00:48:33;;;;;;;2.75;2.55;;;14.70;99.90;;;;;;5226790;28;20154;-66
2023/08/12 00:51:06;;;;;;;3.05;2.53;;;14.70;99.90;;;;;;5190004;28;20053;-67
2023/08/12 00:53:39;;;;;;;4.97;2.65;;;14.80;99.90;;;;;;5210073;28;20036;-65
2023/08/12 00:56:13;;;;;;;2.60;2.40;;;14.90;99.90;;;;;;5225363;28;20044;-66
2023/08/12 00:58:45;;;;;;;3.67;2.75;;;14.80;99.90;;;;;;5207626;28;20063;-69
2023/08/12 01:01:19;;;;;;;2.92;2.45;;;14.70;99.90;;;;;;5211064;23;20037;-65
2023/08/12 01:03:52;;;;;;;2.65;2.45;;;14.70;99.90;;;;;;5265364;23;20047;-69
2023/08/12 01:06:24;;;;;;;2.55;2.00;;;14.70;99.90;;;;;;5189407;28;20040;-66
2023/08/12 01:08:56;;;;;;;7.13;3.22;;;14.60;99.90;;;;;;5221636;28;20025;-66
2023/08/12 01:12:02;;;;;;;4.13;2.85;;;14.70;99.90;;;;;;5183502;28;20055;-68
2023/08/12 01:14:57;;;;;;;4.30;2.67;;;14.60;99.90;;;;;;5203760;28;20055;-68
2023/08/12 01:17:35;;;;;;;2.92;2.30;;;14.60;99.90;;;;;;5200928;28;20033;-68
2023/08/12 01:20:12;;;;;;;3.35;2.83;;;14.60;99.90;;;;;;5218892;28;20025;-67
2023/08/12 01:22:50;;;;;;;3.30;2.92;;;14.60;99.90;;;;;;5183485;28;20053;-68
2023/08/12 01:25:25;;;;;;;2.95;2.40;;;14.60;99.90;;;;;;5222667;28;20037;-68
2023/08/12 01:27:58;;;;;;;2.42;2.17;;;14.60;99.90;;;;;;5172789;28;20053;-69
2023/08/12 01:30:36;;;;;;;2.78;2.50;;;14.60;99.90;;;;;;5208041;28;20037;-66
2023/08/12 01:33:29;;;;;;;2.28;2.03;;;14.60;99.90;;;;;;5188270;28;20082;-69
2023/08/12 01:36:21;;;;;;;2.20;2.00;;;14.60;99.90;;;;;;5205410;28;20033;-67
2023/08/12 01:38:56;;;;;;;2.50;2.30;;;14.60;99.90;;;;;;5205857;28;20049;-64
2023/08/12 01:41:30;;;;;;;2.83;2.55;;;14.70;99.90;;;;;;5168057;28;20037;-67
2023/08/12 01:44:08;;;;;;;3.23;2.57;;;14.70;99.90;;;;;;5198151;28;20045;-66
2023/08/12 01:46:44;;;;;;;2.83;2.35;;;14.70;99.90;;;;;;5206466;28;20062;-67
2023/08/12 01:49:17;;;;;;;2.38;2.17;;;14.70;99.90;;;;;;5212347;28;20024;-67
2023/08/12 01:51:53;;;;;;;3.40;2.40;;;14.60;99.90;;;;;;5192393;28;20051;-66
2023/08/12 01:54:33;;;;;;;4.18;3.20;;;14.60;99.90;;;;;;5197865;28;20045;-67
2023/08/12 01:57:08;;;;;;;4.97;3.17;;;14.60;99.90;;;;;;5199046;28;20047;-66
2023/08/12 01:59:41;;;;;;;3.08;2.78;;;14.50;99.90;;;;;;5203839;28;20471;-66
2023/08/12 02:02:15;;;;;;;3.83;2.75;;;14.80;99.90;;;;;;5199683;28;20052;-70
2023/08/12 02:04:50;;;;;;;2.95;2.17;;;14.60;99.90;;;;;;5203346;28;20040;-67
2023/08/12 02:07:22;;;;;;;4.03;2.38;;;14.60;99.90;;;;;;5213269;28;20040;-71
2023/08/12 02:09:53;;;;;;;2.50;2.30;;;14.40;99.90;;;;;;5225695;28;20066;-66
2023/08/12 02:12:30;;;;;;;3.13;2.83;;;14.30;99.90;;;;;;5228943;28;20328;-69
2023/08/12 02:15:07;;;;;;;2.40;1.95;;;14.20;99.90;;;;;;5221505;28;20053;-70
2023/08/12 02:17:39;;;;;;;4.25;2.40;;;14.20;99.90;;;;;;5204459;28;20043;-70
2023/08/12 02:20:18;;;;;;;3.22;2.25;;;14.20;99.90;;;;;;5183576;28;20037;-65
2023/08/12 02:22:50;;;;;;;3.13;2.38;;;14.20;99.90;;;;;;5170121;28;20045;-68
2023/08/12 02:25:23;;;;;;;2.70;2.50;;;14.10;99.90;;;;;;5189922;28;20045;-70
2023/08/12 02:27:58;;;;;;;2.75;2.25;;;14.10;99.90;;;;;;5191402;28;20463;-67
2023/08/12 02:30:33;;;;;;;;;;;14.10;99.90;;;;;;5186652;28;20106;-68
2023/08/12 02:33:07;;;;;;;3.78;2.78;;;14.10;99.90;;;;;;5216619;28;19942;-65
2023/08/12 02:35:39;;;;;;;;;;;14.00;99.90;;;;;;5205194;28;20046;-68
2023/08/12 02:38:13;;;;;;;3.40;2.63;;;14.00;99.90;;;;;;5225275;28;19978;-66
2023/08/12 02:40:49;;;;;;;3.20;2.55;;;13.90;99.90;;;;;;5204476;28;20037;-68
2023/08/12 02:43:25;;;;;;;4.82;2.90;;;14.00;99.90;;;;;;5198364;28;20037;-67
2023/08/12 02:45:59;;;;;;;2.78;2.42;;;13.90;99.90;;;;;;5202480;28;20265;-70
2023/08/12 02:48:32;;;;;;;3.47;2.75;;;13.90;99.90;;;;;;5186482;28;20047;-68
2023/08/12 02:51:04;;;;;;;3.72;2.50;;;13.90;99.90;;;;;;5207366;28;20059;-69
2023/08/12 02:53:36;;;;;;;4.32;3.00;;;13.80;99.90;;;;;;5187971;28;20045;-65
2023/08/12 02:56:11;;;;;;;5.88;2.45;;;13.80;99.90;;;;;;5201248;28;20045;-67
2023/08/12 02:58:45;;;;;;;2.60;2.40;;;13.70;99.90;;;;;;5199272;28;20036;-68
2023/08/12 03:01:21;;;;;;;3.72;2.78;;;13.80;99.90;;;;;;5202560;28;20048;-67
2023/08/12 03:03:56;;;;;;;4.43;2.67;;;13.60;99.90;;;;;;5197902;28;20043;-67
2023/08/12 03:06:30;;;;;;;3.00;2.63;;;13.50;99.90;;;;;;5222968;28;20041;-69
2023/08/12 03:09:05;;;;;;;2.70;2.20;;;13.50;99.90;;;;;;5243254;28;20070;-68
2023/08/12 03:11:40;;;;;;;2.95;2.50;;;13.60;99.90;;;;;;5203603;28;20039;-66
2023/08/12 03:14:12;;;;;;;2.92;2.60;;;13.50;99.90;;;;;;5198465;28;20037;-69
2023/08/12 03:16:49;;;;;;;3.97;2.97;;;13.50;99.90;;;;;;5200125;28;20055;-68
2023/08/12 03:19:20;;;;;;;3.63;2.50;;;13.50;99.90;;;;;;5203982;28;20053;-66
2023/08/12 03:21:54;;;;;;;3.85;2.47;;;13.60;99.90;;;;;;5220936;28;20039;-67
2023/08/12 03:24:31;;;;;;;2.58;2.38;;;13.60;99.90;;;;;;5220346;28;20035;-66
2023/08/12 03:27:03;;;;;;;2.20;2.00;;;13.60;99.90;;;;;;5187081;28;20037;-66
2023/08/12 03:29:36;;;;;;;3.03;2.42;;;13.50;99.90;;;;;;5206740;28;20040;-66
2023/08/12 03:32:11;;;;;;;2.65;2.20;;;13.40;99.90;;;;;;5215517;28;20037;-67
2023/08/12 03:34:45;;;;;;;2.55;2.35;;;13.30;99.90;;;;;;5187841;28;20044;-68
2023/08/12 03:37:20;;;;;;;3.42;3.00;;;13.30;99.90;;;;;;5220573;28;20041;-66
2023/08/12 03:39:59;;;;;;;2.90;2.65;;;13.30;99.90;;;;;;5170875;28;20044;-69
2023/08/12 03:42:33;;;;;;;3.55;2.67;;;13.30;99.90;;;;;;5181882;28;20036;-66
2023/08/12 03:45:06;;;;;;;4.15;3.00;;;13.40;99.90;;;;;;5167093;28;20056;-68
2023/08/12 03:47:38;;;;;;;3.40;2.70;;;13.50;99.90;;;;;;5222144;28;20033;-68
2023/08/12 03:50:12;;;;;;;4.20;2.50;;;13.50;99.90;;;;;;5202530;28;20548;-68
2023/08/12 03:52:44;;;;;;;3.60;2.90;;;13.50;99.90;;;;;;5206938;28;20646;-68
2023/08/12 03:55:17;;;;;;;3.20;2.80;;;13.60;99.90;;;;;;5203361;28;20059;-67
2023/08/12 03:58:00;;;;;;;2.92;2.13;;;13.50;99.90;;;;;;5198785;28;20033;-67
2023/08/12 04:00:39;;;;;;;4.43;2.55;;;13.50;99.90;;;;;;5179972;28;20049;-70
2023/08/12 04:03:16;;;;;;;4.43;3.03;;;13.50;99.90;;;;;;5187133;28;20041;-67
2023/08/12 04:05:52;;;;;;;4.90;2.40;;;13.60;99.90;;;;;;5184060;28;20037;-67
2023/08/12 04:08:24;;;;;;;4.10;2.33;;;13.70;99.90;;;;;;5167230;28;20051;-66
2023/08/12 04:10:58;;;;;;;3.33;2.83;;;13.90;99.90;;;;;;5183247;28;20057;-68
2023/08/12 04:13:30;;;;;;;2.83;2.60;;;14.00;99.90;;;;;;5163886;28;20042;-68
2023/08/12 04:16:07;;;;;;;3.45;2.40;;;14.00;99.90;;;;;;5220971;28;20049;-65
2023/08/12 04:18:39;;;;;;;2.53;2.33;;;14.20;99.90;;;;;;5194712;28;20041;-67
2023/08/12 04:21:15;;;;;;;4.18;2.75;;;14.20;99.90;;;;;;5187257;28;20314;-65
2023/08/12 04:23:51;;;;;;;2.50;2.30;;;14.20;99.90;;;;;;5198833;28;20044;-66
2023/08/12 04:26:24;;;;;;;3.13;2.35;;;14.40;99.90;;;;;;5202487;28;20045;-67
2023/08/12 04:29:04;;;;;;;4.63;2.83;;;14.60;99.90;;;;;;5189644;28;20053;-67
2023/08/12 04:31:35;;;;;;;3.17;2.20;;;14.90;99.90;;;;;;5204858;28;20037;-68
2023/08/12 04:34:08;;;;;;;2.40;2.15;;;15.20;99.90;;;;;;5203063;28;20045;-70
2023/08/12 04:36:44;;;;;;;2.17;1.90;;;15.40;99.90;;;;;;5216119;28;20052;-70
2023/08/12 04:39:22;;;;;;;2.42;2.22;;;15.60;99.90;;;;;;5204426;28;20477;-67
2023/08/12 04:41:57;;;;;;;2.70;2.40;;;15.90;99.90;;;;;;5189432;28;20067;-68
2023/08/12 04:44:28;;;;;;;3.13;2.53;;;16.20;1.00;;;;;;5178867;28;20048;-70
2023/08/12 04:47:00;;;;;;;2.92;1.85;;;16.50;1.00;;;;;;5224505;28;20040;-69
2023/08/12 04:49:34;;;;;;;2.70;2.05;;;16.90;1.00;;;;;;5223499;28;20037;-70
2023/08/12 04:52:08;;;;;;;3.70;2.60;;;17.30;1.00;;;;;;5189289;28;20333;-70
2023/08/12 04:54:40;;;;;;;2.85;1.92;;;17.50;1.00;;;;;;5204282;28;20040;-68
2023/08/12 04:57:13;;;;;;;4.85;2.20;;;17.70;99.90;;;;;;5205469;28;20443;-68
2023/08/12 04:59:44;;;;;;;2.45;2.10;;;17.90;99.90;;;;;;5191353;28;20044;-68
2023/08/12 05:02:20;;;;;;;2.97;2.10;;;18.20;99.90;;;;;;5206040;28;20051;-66
2023/08/12 05:04:52;;;;;;;2.15;1.95;;;18.40;1.00;;;;;;5187046;28;20033;-67
2023/08/12 05:07:23;;;;;;;3.08;2.00;;;18.60;1.00;;;;;;5185554;28;20048;-66
2023/08/12 05:09:58;;;;;;;2.22;2.03;;;19.00;1.00;;;;;;5203028;28;20044;-65
2023/08/12 05:12:30;;;;;;;4.68;2.25;;;19.20;1.00;;;;;;5170304;28;20039;-67
2023/08/12 05:15:02;;;;;;;5.68;1.80;;;19.40;1.00;;;;;;5191867;28;20130;-69
2023/08/12 05:17:36;;;;;;;2.33;2.05;;;19.60;99.90;;;;;;5185777;28;20613;-69
2023/08/12 05:20:10;;;;;;;4.78;2.33;;;19.80;99.90;;;;;;5189008;28;20047;-69
2023/08/12 05:22:47;;;;;;;2.08;1.73;;;19.80;99.90;;;;;;5221973;28;20037;-69
2023/08/12 05:25:21;;;;;;;1.88;1.77;;;19.90;99.90;;;;;;5206010;28;20371;-68
2023/08/12 05:27:53;;;;;;;2.60;1.92;;;20.00;1.00;;;;;;5173798;28;20041;-69
2023/08/12 05:30:27;;;;;;;1.77;1.67;;;20.30;1.00;;;;;;5206085;28;20280;-69
2023/08/12 05:33:02;;;;;;;3.85;2.10;;;20.40;1.00;;;;;;5210185;28;20048;-65
2023/08/12 05:35:35;;;;;;;2.30;2.10;;;20.50;1.00;;;;;;5186167;28;20237;-68
2023/08/12 05:38:12;;;;;;;1.60;1.50;;;20.90;1.00;;;;;;5189024;28;20048;-68
2023/08/12 05:40:47;;;;;;;2.03;1.85;;;21.20;99.90;;;;;;5205741;28;20045;-68
2023/08/12 05:43:18;;;;;;;2.10;1.63;;;21.50;1.00;;;;;;5204585;28;20041;-69
2023/08/12 05:45:50;;;;;;;2.15;1.90;;;21.60;1.00;;;;;;5221869;28;20343;-68
2023/08/12 05:48:21;;;;;;;2.10;1.90;;;21.70;1.00;;;;;;5226891;28;20391;-67
2023/08/12 05:50:55;;;;;;;1.98;1.73;;;21.70;1.00;;;;;;5243615;28;20046;-66
2023/08/12 05:53:30;;;;;;;2.08;1.83;;;21.80;1.00;;;;;;5194645;28;20048;-68
2023/08/12 05:56:01;;;;;;;;;;;21.90;99.90;;;;;;5225614;28;20348;-66
2023/08/12 05:58:33;;;;;;;2.30;1.83;;;22.10;99.90;;;;;;5174080;28;19921;-68
2023/08/12 06:01:04;;;;;;;2.00;1.63;;;22.50;99.90;;;;;;5218237;28;20229;-70
2023/08/12 06:03:41;;;;;;;3.10;1.90;;;22.80;99.90;;;;;;5185137;28;20040;-68
2023/08/12 06:06:13;;;;;;;1.92;1.52;;;23.10;99.90;;;;;;5205152;28;20046;-69
2023/08/12 06:08:48;;;;;;;2.50;2.05;;;23.30;99.90;;;;;;5230550;28;20039;-67
2023/08/12 06:11:22;;;;;;;1.63;1.50;;;22.50;99.90;;;;;;5193298;28;20397;-70
2023/08/12 06:13:53;;;;;;;2.13;1.90;;;22.20;99.90;;;;;;5210334;28;20045;-70
2023/08/12 06:16:27;;;;;;;2.50;1.92;;;22.30;99.90;;;;;;5230015;28;20024;-68
2023/08/12 06:19:00;;;;;;;5.10;2.00;;;22.70;1.00;;;;;;5238150;28;20047;-69
2023/08/12 06:21:35;;;;;;;2.33;2.13;;;23.10;99.90;;;;;;5220086;28;20066;-70
2023/08/12 06:24:06;;;;;;;2.30;1.90;;;23.60;1.00;;;;;;5203967;28;20036;-68
2023/08/12 06:26:41;;;;;;;2.10;1.70;;;23.90;99.90;;;;;;5197382;28;20047;-70
2023/08/12 06:29:16;;;;;;;2.10;1.67;;;24.10;99.90;;;;;;5223773;28;20048;-68
2023/08/12 06:31:50;;;;;;;2.92;1.70;;;24.20;99.90;;;;;;5218508;28;20040;-69
2023/08/12 06:34:24;;;;;;;2.58;1.85;;;24.20;99.90;;;;;;5196613;28;20302;-69
2023/08/12 06:37:01;;;;;;;2.20;2.00;;;24.40;99.90;;;;;;5192241;28;20041;-70
2023/08/12 06:39:36;;;;;;;2.30;1.77;;;24.50;99.90;;;;;;5206828;28;20051;-69
2023/08/12 06:42:07;;;;;;;2.10;1.60;;;24.50;99.90;;;;;;5224644;28;20256;-69
2023/08/12 06:44:39;;;;;;;2.10;1.90;;;24.60;77.60;;;;;;5191780;28;20037;-68
2023/08/12 06:47:10;;;;;;;1.70;1.60;;;24.80;99.90;;;;;;5203833;28;20275;-68
2023/08/12 06:49:44;;;;;;;3.67;2.10;;;24.80;99.90;;;;;;5171093;28;20095;-65
2023/08/12 06:52:21;;;;;;;3.55;2.70;;;24.80;99.90;;;;;;5188109;28;20039;-67
2023/08/12 06:54:53;;;;;;;2.33;2.08;;;24.70;99.90;;;;;;5218290;28;20047;-68
2023/08/12 06:57:24;;;;;;;2.38;2.10;;;24.80;99.90;;;;;;5182882;28;20041;-67
2023/08/12 07:00:01;;;;;;;2.28;2.08;;;24.70;99.90;;;;;;5220633;28;20037;-65
2023/08/12 07:02:35;;;;;;;3.97;2.60;;;24.80;99.90;;;;;;5201994;28;20071;-69
2023/08/12 07:05:12;;;;;;;4.72;2.33;;;24.90;99.90;;;;;;5185182;28;20669;-66
2023/08/12 07:07:47;;;;;;;3.88;2.58;;;25.10;99.90;;;;;;5198253;28;20116;-67
2023/08/12 07:10:24;;;;;;;2.45;2.10;;;25.30;99.90;;;;;;5203591;28;20037;-64
2023/08/12 07:13:00;;;;;;;3.05;2.22;;;25.50;99.90;;;;;;5203676;28;20051;-67
2023/08/12 07:15:37;;;;;;;2.83;2.53;;;25.80;99.90;;;;;;5200316;28;20041;-69
2023/08/12 07:18:14;;;;;;;2.40;2.20;;;25.80;99.90;;;;;;5202324;28;20057;-65
2023/08/12 07:20:45;;;;;;;3.78;2.85;;;25.80;99.90;;;;;;5203498;28;20049;-67
2023/08/12 07:23:20;;;;;;;2.78;2.17;;;25.80;99.90;;;;;;5215391;28;20043;-67
2023/08/12 07:25:52;;;;;;;3.15;2.13;;;25.80;99.90;;;;;;5173314;28;20037;-69
2023/08/12 07:28:29;;;;;;;2.35;1.83;;;25.70;99.90;;;;;;5181058;28;20429;-69
2023/08/12 07:31:09;;;;;;;3.80;2.35;;;25.90;99.90;;;;;;5202120;28;20041;-69
2023/08/12 07:33:49;;;;;;;2.60;2.40;;;26.00;99.90;;;;;;5185983;28;20051;-67
2023/08/12 07:36:22;;;;;;;2.90;2.45;;;25.80;99.90;;;;;;5170258;28;20601;-68
2023/08/12 07:38:58;;;;;;;2.60;2.40;;;25.90;82.80;;;;;;5165680;28;20045;-68
2023/08/12 07:41:35;;;;;;;2.78;2.47;;;25.90;99.90;;;;;;5198371;28;20050;-66
2023/08/12 07:44:11;;;;;;;2.13;1.88;;;26.00;99.90;;;;;;5203091;28;20040;-68
2023/08/12 07:46:46;;;;;;;2.20;2.00;;;26.00;79.00;;;;;;5157894;28;20049;-68
2023/08/12 07:49:18;;;;;;;2.97;2.40;;;26.00;99.90;;;;;;5201071;28;20051;-66
2023/08/12 07:51:50;;;;;;;3.25;1.92;;;26.00;99.90;;;;;;5224156;28;20056;-68
2023/08/12 07:54:24;;;;;;;3.55;1.95;;;26.20;79.00;;;;;;5202341;28;20045;-72
2023/08/12 07:56:58;;;;;;;1.92;1.73;;;26.20;23.00;;;;;;5199512;28;20368;-68
2023/08/12 07:59:32;;;;;;;2.30;2.10;;;26.50;90.30;;;;;;5180737;28;20334;-67
2023/08/12 08:02:07;;;;;;;2.22;2.05;;;26.40;99.90;;;;;;5208929;28;20043;-68
2023/08/12 08:04:41;;;;;;;2.50;2.13;;;26.50;99.90;;;;;;5225767;28;20066;-68
2023/08/12 08:07:16;;;;;;;3.45;1.67;;;26.50;99.90;;;;;;5241048;28;20048;-68
2023/08/12 08:09:56;;;;;;;3.20;2.00;;;26.70;99.90;;;;;;5222870;28;20075;-68
2023/08/12 08:12:28;;;;;;;2.30;2.10;;;26.80;99.90;;;;;;5177594;28;20045;-70
2023/08/12 08:15:03;;;;;;;2.72;1.98;;;26.60;99.90;;;;;;5214204;28;20083;-69
2023/08/12 08:17:37;;;;;;;2.30;2.10;;;26.80;1.00;;;;;;5206317;28;20335;-67
2023/08/12 08:20:19;;;;;;;2.17;1.80;;;27.00;99.90;;;;;;5202079;28;20040;-67
2023/08/12 08:22:56;;;;;;;2.35;2.15;;;27.10;3.30;;;;;;5197623;28;20045;-67
2023/08/12 08:25:33;;;;;;;2.78;1.98;;;27.30;1.00;;;;;;5183793;28;20379;-67
2023/08/12 08:28:08;;;;;;;2.83;1.95;;;27.50;1.00;;;;;;5182276;28;20053;-66
2023/08/12 08:30:41;;;;;;;2.35;2.03;;;27.30;99.90;;;;;;5216081;28;20360;-69
2023/08/12 08:33:18;;;;;;;2.17;1.98;;;27.60;99.90;;;;;;5204846;28;20210;-68
2023/08/12 08:35:49;;;;;;;2.20;2.00;;;27.90;97.30;;;;;;5196927;28;20045;-66
2023/08/12 08:38:23;;;;;;;3.30;2.08;;;28.10;99.90;;;;;;5239054;28;20282;-67
2023/08/12 08:40:58;;;;;;;2.83;2.08;;;27.90;99.90;;;;;;5216507;28;20045;-67
2023/08/12 08:43:38;;;;;;;2.17;1.98;;;27.80;99.90;;;;;;5211650;28;20037;-67
2023/08/12 08:46:19;;;;;;;1.80;1.70;;;27.90;99.90;;;;;;5177745;28;20048;-71
2023/08/12 08:48:55;;;;;;;2.53;2.13;;;28.10;99.90;;;;;;5165848;28;20038;-65
2023/08/12 08:51:32;;;;;;;2.15;1.95;;;28.30;99.90;;;;;;5204575;28;20048;-70
2023/08/12 08:54:11;;;;;;;2.20;2.00;;;28.30;99.90;;;;;;5209588;28;20074;-65
2023/08/12 08:56:49;;;;;;;2.38;1.80;;;28.40;99.90;;;;;;5202525;28;20241;-71
2023/08/12 08:59:24;;;;;;;2.72;2.00;;;28.50;99.90;;;;;;5218268;28;20037;-69
2023/08/12 09:01:55;;;;;;;;;;;28.70;99.90;;;;;;5177381;28;20730;-68
2023/08/12 09:04:28;;;;;;;2.15;1.95;;;28.90;99.90;;;;;;5168600;28;19927;-67
2023/08/12 09:07:09;;;;;;;2.30;2.08;;;28.80;99.90;;;;;;5214702;28;20037;-67
2023/08/12 09:09:48;;;;;;;2.20;1.88;;;28.50;94.10;;;;;;5205584;28;20049;-67
2023/08/12 09:12:21;;;;;;;2.25;2.05;;;28.00;55.20;;;;;;5203066;28;20079;-66
2023/08/12 09:14:53;;;;;;;2.03;1.90;;;27.40;5.00;;;;;;5208545;28;20043;-67
2023/08/12 09:17:29;;;;;;;4.72;1.92;;;27.90;97.00;;;;;;5219623;28;20264;-66
2023/08/12 09:20:04;;;;;;;2.40;2.20;;;28.30;99.90;;;;;;5226126;28;20336;-67
2023/08/12 09:22:35;;;;;;;2.20;1.83;;;28.80;99.90;;;;;;5200677;28;20056;-68
2023/08/12 09:25:09;;;;;;;2.03;1.80;;;28.80;99.90;;;;;;5204872;28;20025;-69
2023/08/12 09:27:44;;;;;;;;;;;29.20;99.90;;;;;;5223789;28;20029;-67
2023/08/12 09:30:15;;;;;;;6.78;2.28;;;29.40;99.90;;;;;;5185669;28;19912;-69
2023/08/12 09:33:13;;;;;;;4.07;2.05;;;28.90;99.90;;;;;;5193989;28;20049;-66
2023/08/12 09:35:53;;;;;;;2.78;1.80;;;28.90;48.90;;;;;;5215837;28;20052;-68
2023/08/12 09:38:29;;;;;;;6.70;2.10;;;29.10;63.80;;;;;;5189491;28;20047;-71
2023/08/12 09:41:05;;;;;;;2.38;2.00;;;29.60;25.90;;;;;;5188069;28;20235;-73
2023/08/12 09:43:42;;;;;;;2.10;1.90;;;29.60;1.00;;;;;;5210252;28;20067;-68
2023/08/12 09:46:14;;;;;;;1.90;1.80;;;29.70;24.40;;;;;;5235044;28;20048;-67
2023/08/12 09:48:46;;;;;;;2.15;1.75;;;30.30;61.20;;;;;;5221852;28;20326;-69
2023/08/12 09:51:18;;;;;;;2.95;2.38;;;30.40;31.30;;;;;;5203978;28;20036;-68
2023/08/12 09:53:54;;;;;;;2.42;2.22;;;30.20;99.90;;;;;;5168128;28;20225;-69
2023/08/12 09:56:33;;;;;;;2.10;1.90;;;30.30;99.90;;;;;;5184375;28;20253;-68
2023/08/12 09:59:15;;;;;;;2.13;1.92;;;30.60;99.90;;;;;;5221855;28;20088;-69
2023/08/12 10:01:50;;;;;;;2.40;1.60;;;30.40;99.90;;;;;;5182746;28;20373;-69
2023/08/12 10:04:32;;;;;;;2.42;2.20;;;31.00;99.90;;;;;;5192472;28;20541;-67
2023/08/12 10:07:07;;;;;;;2.55;1.95;;;31.60;99.90;;;;;;5213038;28;20215;-65
2023/08/12 10:09:42;;;;;;;2.53;1.75;;;31.40;99.90;;;;;;5213282;28;20047;-68
2023/08/12 10:12:15;;;;;;;2.17;1.98;;;31.00;99.90;;;;;;5202591;28;20328;-68
2023/08/12 10:14:49;;;;;;;3.03;1.70;;;30.80;99.90;;;;;;5194516;28;20048;-69
2023/08/12 10:17:22;;;;;;;2.05;1.85;;;31.40;99.90;;;;;;5164480;28;20207;-69
2023/08/12 10:19:58;;;;;;;1.98;1.80;;;31.40;99.90;;;;;;5167164;28;20041;-69
2023/08/12 10:22:31;;;;;;;2.20;2.00;;;31.20;99.90;;;;;;5185932;28;20243;-69
2023/08/12 10:25:03;;;;;;;3.20;2.08;;;32.00;99.90;;;;;;5239363;28;20032;-72
2023/08/12 10:27:41;;;;;;;1.80;1.70;;;32.90;99.90;;;;;;5180882;28;20347;-68
2023/08/12 10:30:13;;;;;;;2.05;1.85;;;33.00;99.90;;;;;;5204257;28;20495;-69
2023/08/12 10:32:51;;;;;;;2.30;1.92;;;32.30;99.90;;;;;;5201898;28;20191;-68
2023/08/12 10:35:23;;;;;;;2.08;1.88;;;33.30;99.90;;;;;;5191841;28;20122;-69
2023/08/12 10:38:00;;;;;;;1.98;1.77;;;33.70;99.90;;;;;;5174744;28;20265;-68
2023/08/12 10:40:32;;;;;;;3.28;1.83;;;33.70;99.90;;;;;;5162704;28;20047;-70
2023/08/12 10:43:08;;;;;;;1.42;1.33;;;34.30;99.90;;;;;;5185453;28;20436;-67
2023/08/12 10:46:21;;;;;;;1.90;1.80;;;33.90;99.90;;;;;;5203273;28;20035;-70
2023/08/12 10:49:15;;;;;;;1.88;1.67;;;34.50;99.90;;;;;;5136795;28;20202;-68
2023/08/12 10:51:54;;;;;;;2.05;1.88;;;33.80;99.90;;;;;;5139735;28;20467;-71
2023/08/12 10:54:33;;;;;;;1.80;1.60;;;34.60;99.90;;;;;;5176503;28;20066;-68
2023/08/12 10:57:08;;;;;;;4.97;1.75;;;35.20;99.90;;;;;;5157135;28;20443;-66
2023/08/12 10:59:45;;;;;;;1.50;1.40;;;35.00;99.90;;;;;;5156293;28;20258;-70
2023/08/12 11:02:33;;;;;;;1.70;1.60;;;35.80;99.90;;;;;;5159097;28;20053;-70
2023/08/12 11:05:12;;;;;;;1.63;1.52;;;36.20;99.90;;;;;;5131108;28;20073;-69
2023/08/12 11:08:00;;;;;;;2.17;1.98;;;37.30;99.90;;;;;;5192511;28;20033;-69
2023/08/12 11:10:34;;;;;;;2.47;1.95;;;36.60;99.90;;;;;;5180416;28;20037;-68
2023/08/12 11:13:06;;;;;;;;;;;36.30;99.90;;;;;;5181183;28;20037;-67
2023/08/12 11:15:47;;;;;;;1.98;1.63;;;37.40;99.90;;;;;;5150876;28;20545;-71
2023/08/12 11:18:23;;;;;;;1.63;1.52;;;37.90;1.00;;;;;;5160491;28;20034;-69
2023/08/12 11:20:57;;;;;;;1.70;1.60;;;37.60;1.00;;;;;;5160643;28;20033;-68
2023/08/12 11:23:36;;;;;;;1.80;1.67;;;37.80;1.00;;;;;;5160008;28;20160;-69
2023/08/12 11:26:09;;;;;;;2.45;1.90;;;38.20;1.00;;;;;;5189369;28;20059;-70
2023/08/12 11:28:41;;;;;;;1.80;1.60;;;38.40;1.00;;;;;;5164836;28;20034;-69
2023/08/12 11:31:12;;;;;;;2.45;1.67;;;37.50;99.90;;;;;;5198597;28;20041;-69
2023/08/12 11:33:47;;;;;;;1.50;1.40;;;37.60;99.90;;;;;;5202821;28;20272;-69
2023/08/12 11:36:21;;;;;;;2.00;1.70;;;37.70;99.90;;;;;;5167481;28;20413;-68
2023/08/12 11:38:59;;;;;;;1.52;1.42;;;38.50;99.90;;;;;;5189646;28;20044;-70
2023/08/12 11:41:30;;;;;;;1.85;1.70;;;38.70;99.90;;;;;;5183406;28;20337;-68
2023/08/12 11:44:04;;;;;;;1.85;1.70;;;38.70;99.90;;;;;;5214019;28;20044;-67
2023/08/12 11:46:38;;;;;;;1.55;1.45;;;38.00;99.90;;;;;;5222362;28;20029;-69
2023/08/12 11:49:10;;;;;;;4.25;1.80;;;37.70;99.90;;;;;;5202166;28;20028;-70
2023/08/12 11:51:49;;;;;;;1.70;1.60;;;38.10;99.90;;;;;;5204523;28;20033;-70
2023/08/12 11:54:29;;;;;;;1.80;1.48;;;37.60;99.90;;;;;;5202111;28;20032;-66
2023/08/12 11:57:01;;;;;;;2.85;1.50;;;35.90;99.90;;;;;;5193163;28;20048;-69
2023/08/12 11:59:41;;;;;;;2.03;1.50;;;36.40;99.90;;;;;;5203787;28;20045;-70
2023/08/12 12:02:16;;;;;;;2.55;1.80;;;37.10;99.90;;;;;;5199656;28;20047;-70
2023/08/12 12:04:47;;;;;;;1.47;1.37;;;37.90;99.90;;;;;;5153939;28;1400763;-68
2023/08/12 12:07:30;;;;;;;2.08;1.70;;;37.90;99.90;;;;;;5222696;28;20282;-67
2023/08/12 12:10:05;;;;;;;1.73;1.63;;;37.60;99.90;;;;;;5204148;28;20044;-70
2023/08/12 12:12:39;;;;;;;1.50;1.38;;;37.20;99.90;;;;;;5220412;28;20366;-68
2023/08/12 12:15:16;;;;;;;;;;;37.80;99.90;;;;;;5218829;28;20460;-69
2023/08/12 12:17:51;;;;;;;1.55;1.45;;;38.40;99.90;;;;;;5187916;28;19916;-69
2023/08/12 12:20:27;;;;;;;1.85;1.75;;;38.20;99.90;;;;;;5205285;28;20033;-70
2023/08/12 12:23:10;;;;;;;1.50;1.40;;;38.00;99.90;;;;;;5221184;28;20031;-67
2023/08/12 12:25:44;;;;;;;1.80;1.50;;;38.60;1.00;;;;;;5200013;28;20044;-68
2023/08/12 12:28:18;;;;;;;1.80;1.35;;;38.70;1.00;;;;;;5209943;28;20025;-71
2023/08/12 12:30:56;;;;;;;1.80;1.33;;;39.00;1.00;;;;;;5191648;28;20045;-71
2023/08/12 12:33:31;;;;;;;1.58;1.38;;;38.50;1.00;;;;;;5206869;28;20402;-67
2023/08/12 12:36:03;;;;;;;1.48;1.38;;;38.50;1.00;;;;;;5203536;28;20041;-69
2023/08/12 12:38:43;;;;;;;1.50;1.40;;;39.10;1.00;;;;;;5182332;28;20060;-68
2023/08/12 12:41:15;;;;;;;2.25;1.23;;;38.70;1.00;;;;;;5206341;28;20638;-66
2023/08/12 12:43:51;;;;;;;1.70;1.60;;;38.60;1.00;;;;;;5200849;28;20053;-68
2023/08/12 12:46:27;;;;;;;1.42;1.33;;;38.00;1.00;;;;;;5167743;28;20056;-68
2023/08/12 12:48:59;;;;;;;1.65;1.55;;;38.10;1.00;;;;;;5192319;28;20036;-68
2023/08/12 12:51:31;;;;;;;2.65;1.33;;;37.60;1.00;;;;;;5189648;28;20142;-68
2023/08/12 12:54:03;;;;;;;1.30;1.20;;;38.10;1.00;;;;;;5206139;28;20091;-70
2023/08/12 12:56:42;;;;;;;1.30;1.00;;;37.00;1.00;;;;;;5189328;28;20051;-68
2023/08/12 12:59:19;;;;;;;1.30;1.20;;;38.30;1.00;;;;;;5187549;28;20049;-70
2023/08/12 13:01:53;;;;;;;1.35;1.20;;;39.00;1.00;;;;;;5212934;28;20041;-66
2023/08/12 13:04:30;;;;;;;1.67;1.20;;;39.00;1.00;;;;;;5190530;28;20241;-68
2023/08/12 13:07:05;;;;;;;1.35;1.23;;;38.90;1.00;;;;;;5206484;28;20246;-69
2023/08/12 13:09:37;;;;;;;1.42;1.33;;;38.80;1.00;;;;;;5206629;28;20076;-68
2023/08/12 13:12:09;;;;;;;1.40;1.30;;;38.50;1.00;;;;;;5183950;28;20253;-69
2023/08/12 13:14:41;;;;;;;1.50;1.17;;;37.90;1.00;;;;;;5168617;28;20046;-70
2023/08/12 13:17:21;;;;;;;1.40;1.30;;;38.40;1.00;;;;;;5182815;28;20211;-68
2023/08/12 13:20:03;;;;;;;1.80;1.38;;;38.10;1.00;;;;;;5200798;28;20045;-67
2023/08/12 13:22:37;;;;;;;1.55;1.45;;;38.70;1.00;;;;;;5186254;28;20045;-67
2023/08/12 13:25:12;;;;;;;2.97;1.45;;;38.90;1.00;;;;;;5202214;28;20041;-68
2023/08/12 13:27:51;;;;;;;1.30;1.20;;;38.70;1.00;;;;;;5203810;28;20041;-67
2023/08/12 13:30:23;;;;;;;1.50;1.40;;;38.90;1.00;;;;;;5198284;28;20042;-66
2023/08/12 13:32:56;;;;;;;2.60;1.48;;;38.90;1.00;;;;;;5209795;28;20044;-67